sensor_id;sensor_type;location;lat;lon;timestamp;P1;durP1;ratioP1;P2;durP2;ratioP2
74059;SDS011;62414;53.436;8.828;2024-03-02T00:02:25;23.50;;;9.50;;
74059;SDS011;62414;53.436;8.828;2024-03-02T00:04:51;25.23;;;10.38;;
74059;SDS011;62414;53.436;8.828;2024-03-02T00:07:16;22.83;;;9.87;;
74059;SDS011;62414;53.436;8.828;2024-03-02T00:09:42;25.67;;;9.97;;
74059;SDS011;62414;53.436;8.828;2024-03-02T00:12:08;25.80;;;10.48;;
74059;SDS011;62414;53.436;8.828;2024-03-02T00:14:34;23.65;;;10.23;;
74059;SDS011;62414;53.436;8.828;2024-03-02T00:17:00;26.37;;;9.93;;
74059;SDS011;62414;53.436;8.828;2024-03-02T00:19:27;25.17;;;10.40;;
74059;SDS011;62414;53.436;8.828;2024-03-02T00:21:52;27.35;;;10.35;;
74059;SDS011;62414;53.436;8.828;2024-03-02T00:24:19;25.03;;;9.93;;
74059;SDS011;62414;53.436;8.828;2024-03-02T00:26:46;24.38;;;10.60;;
74059;SDS011;62414;53.436;8.828;2024-03-02T00:29:12;25.70;;;10.70;;
74059;SDS011;62414;53.436;8.828;2024-03-02T00:31:40;28.30;;;11.25;;
74059;SDS011;62414;53.436;8.828;2024-03-02T00:34:06;25.90;;;10.43;;
74059;SDS011;62414;53.436;8.828;2024-03-02T00:36:32;24.77;;;10.10;;
74059;SDS011;62414;53.436;8.828;2024-03-02T00:38:58;25.47;;;10.10;;
74059;SDS011;62414;53.436;8.828;2024-03-02T00:41:24;24.38;;;10.15;;
74059;SDS011;62414;53.436;8.828;2024-03-02T00:43:57;23.35;;;10.02;;
74059;SDS011;62414;53.436;8.828;2024-03-02T00:46:23;23.77;;;9.90;;
74059;SDS011;62414;53.436;8.828;2024-03-02T00:48:52;25.03;;;10.10;;
74059;SDS011;62414;53.436;8.828;2024-03-02T00:51:19;25.73;;;10.85;;
74059;SDS011;62414;53.436;8.828;2024-03-02T00:53:46;25.90;;;10.90;;
74059;SDS011;62414;53.436;8.828;2024-03-02T00:56:12;27.38;;;10.73;;
74059;SDS011;62414;53.436;8.828;2024-03-02T00:58:37;25.77;;;10.85;;
74059;SDS011;62414;53.436;8.828;2024-03-02T01:01:03;26.07;;;10.27;;
74059;SDS011;62414;53.436;8.828;2024-03-02T01:03:29;26.10;;;10.23;;
74059;SDS011;62414;53.436;8.828;2024-03-02T01:05:54;26.40;;;10.93;;
74059;SDS011;62414;53.436;8.828;2024-03-02T01:08:20;26.20;;;10.82;;
74059;SDS011;62414;53.436;8.828;2024-03-02T01:10:47;30.27;;;10.60;;
74059;SDS011;62414;53.436;8.828;2024-03-02T01:13:12;28.95;;;11.00;;
74059;SDS011;62414;53.436;8.828;2024-03-02T01:15:38;27.20;;;10.23;;
74059;SDS011;62414;53.436;8.828;2024-03-02T01:18:04;28.37;;;10.77;;
74059;SDS011;62414;53.436;8.828;2024-03-02T01:20:29;26.27;;;10.93;;
74059;SDS011;62414;53.436;8.828;2024-03-02T01:22:55;27.80;;;10.83;;
74059;SDS011;62414;53.436;8.828;2024-03-02T01:25:20;26.20;;;10.50;;
74059;SDS011;62414;53.436;8.828;2024-03-02T01:27:47;27.20;;;11.00;;
74059;SDS011;62414;53.436;8.828;2024-03-02T01:30:13;26.98;;;11.20;;
74059;SDS011;62414;53.436;8.828;2024-03-02T01:32:38;27.03;;;11.20;;
74059;SDS011;62414;53.436;8.828;2024-03-02T01:35:04;27.38;;;11.02;;
74059;SDS011;62414;53.436;8.828;2024-03-02T01:37:30;31.03;;;11.03;;
74059;SDS011;62414;53.436;8.828;2024-03-02T01:39:56;26.33;;;10.85;;
74059;SDS011;62414;53.436;8.828;2024-03-02T01:42:21;27.83;;;10.97;;
74059;SDS011;62414;53.436;8.828;2024-03-02T01:44:48;27.10;;;11.37;;
74059;SDS011;62414;53.436;8.828;2024-03-02T01:47:13;28.58;;;11.65;;
74059;SDS011;62414;53.436;8.828;2024-03-02T01:49:39;27.63;;;10.60;;
74059;SDS011;62414;53.436;8.828;2024-03-02T01:52:05;27.93;;;10.90;;
74059;SDS011;62414;53.436;8.828;2024-03-02T01:54:30;25.50;;;10.63;;
74059;SDS011;62414;53.436;8.828;2024-03-02T01:56:56;28.15;;;11.48;;
74059;SDS011;62414;53.436;8.828;2024-03-02T01:59:21;29.27;;;11.10;;
74059;SDS011;62414;53.436;8.828;2024-03-02T02:01:48;28.07;;;11.57;;
74059;SDS011;62414;53.436;8.828;2024-03-02T02:04:14;28.95;;;11.68;;
74059;SDS011;62414;53.436;8.828;2024-03-02T02:06:39;26.03;;;10.43;;
74059;SDS011;62414;53.436;8.828;2024-03-02T02:09:05;27.97;;;11.30;;
74059;SDS011;62414;53.436;8.828;2024-03-02T02:11:31;27.20;;;11.20;;
74059;SDS011;62414;53.436;8.828;2024-03-02T02:13:56;29.50;;;11.30;;
74059;SDS011;62414;53.436;8.828;2024-03-02T02:16:22;30.80;;;11.80;;
74059;SDS011;62414;53.436;8.828;2024-03-02T02:18:49;26.90;;;10.43;;
74059;SDS011;62414;53.436;8.828;2024-03-02T02:21:14;29.23;;;11.45;;
74059;SDS011;62414;53.436;8.828;2024-03-02T02:23:41;27.17;;;10.30;;
74059;SDS011;62414;53.436;8.828;2024-03-02T02:26:07;30.02;;;11.73;;
74059;SDS011;62414;53.436;8.828;2024-03-02T02:28:32;30.33;;;11.30;;
74059;SDS011;62414;53.436;8.828;2024-03-02T02:30:58;28.63;;;11.33;;
74059;SDS011;62414;53.436;8.828;2024-03-02T02:33:23;26.60;;;10.95;;
74059;SDS011;62414;53.436;8.828;2024-03-02T02:35:49;29.80;;;11.47;;
74059;SDS011;62414;53.436;8.828;2024-03-02T02:38:14;28.40;;;10.70;;
74059;SDS011;62414;53.436;8.828;2024-03-02T02:40:41;26.27;;;10.82;;
74059;SDS011;62414;53.436;8.828;2024-03-02T02:43:07;28.52;;;11.48;;
74059;SDS011;62414;53.436;8.828;2024-03-02T02:45:32;29.30;;;11.00;;
74059;SDS011;62414;53.436;8.828;2024-03-02T02:47:58;32.23;;;11.20;;
74059;SDS011;62414;53.436;8.828;2024-03-02T02:50:23;30.00;;;11.73;;
74059;SDS011;62414;53.436;8.828;2024-03-02T02:52:49;30.43;;;11.57;;
74059;SDS011;62414;53.436;8.828;2024-03-02T02:55:14;29.20;;;11.83;;
74059;SDS011;62414;53.436;8.828;2024-03-02T02:57:41;28.88;;;11.25;;
74059;SDS011;62414;53.436;8.828;2024-03-02T03:00:07;29.60;;;11.30;;
74059;SDS011;62414;53.436;8.828;2024-03-02T03:02:34;30.23;;;11.02;;
74059;SDS011;62414;53.436;8.828;2024-03-02T03:04:59;32.27;;;11.80;;
74059;SDS011;62414;53.436;8.828;2024-03-02T03:07:25;31.53;;;11.73;;
74059;SDS011;62414;53.436;8.828;2024-03-02T03:09:50;29.40;;;11.27;;
74059;SDS011;62414;53.436;8.828;2024-03-02T03:12:16;32.67;;;12.03;;
74059;SDS011;62414;53.436;8.828;2024-03-02T03:14:43;31.43;;;11.63;;
74059;SDS011;62414;53.436;8.828;2024-03-02T03:17:08;31.60;;;11.80;;
74059;SDS011;62414;53.436;8.828;2024-03-02T03:19:34;27.37;;;11.17;;
74059;SDS011;62414;53.436;8.828;2024-03-02T03:21:59;29.80;;;11.73;;
74059;SDS011;62414;53.436;8.828;2024-03-02T03:24:25;32.33;;;12.23;;
74059;SDS011;62414;53.436;8.828;2024-03-02T03:26:50;31.77;;;11.90;;
74059;SDS011;62414;53.436;8.828;2024-03-02T03:29:16;29.47;;;11.50;;
74059;SDS011;62414;53.436;8.828;2024-03-02T03:31:43;29.25;;;11.13;;
74059;SDS011;62414;53.436;8.828;2024-03-02T03:34:08;30.57;;;11.40;;
74059;SDS011;62414;53.436;8.828;2024-03-02T03:36:34;30.23;;;11.00;;
74059;SDS011;62414;53.436;8.828;2024-03-02T03:38:59;28.87;;;10.37;;
74059;SDS011;62414;53.436;8.828;2024-03-02T03:41:25;29.37;;;11.47;;
74059;SDS011;62414;53.436;8.828;2024-03-02T03:43:50;29.58;;;11.57;;
74059;SDS011;62414;53.436;8.828;2024-03-02T03:46:16;29.93;;;11.57;;
74059;SDS011;62414;53.436;8.828;2024-03-02T03:48:42;28.23;;;11.30;;
74059;SDS011;62414;53.436;8.828;2024-03-02T03:51:08;32.10;;;11.90;;
74059;SDS011;62414;53.436;8.828;2024-03-02T03:53:33;29.93;;;11.27;;
74059;SDS011;62414;53.436;8.828;2024-03-02T03:55:59;32.83;;;11.60;;
74059;SDS011;62414;53.436;8.828;2024-03-02T03:58:24;33.20;;;12.47;;
74059;SDS011;62414;53.436;8.828;2024-03-02T04:00:50;33.83;;;11.73;;
74059;SDS011;62414;53.436;8.828;2024-03-02T04:03:15;31.70;;;12.17;;
74059;SDS011;62414;53.436;8.828;2024-03-02T04:05:42;32.97;;;11.93;;
74059;SDS011;62414;53.436;8.828;2024-03-02T04:08:08;32.38;;;11.45;;
74059;SDS011;62414;53.436;8.828;2024-03-02T04:10:33;31.43;;;11.47;;
74059;SDS011;62414;53.436;8.828;2024-03-02T04:12:59;31.88;;;11.65;;
74059;SDS011;62414;53.436;8.828;2024-03-02T04:15:24;33.73;;;12.07;;
74059;SDS011;62414;53.436;8.828;2024-03-02T04:17:50;31.90;;;11.67;;
74059;SDS011;62414;53.436;8.828;2024-03-02T04:20:15;29.90;;;11.63;;
74059;SDS011;62414;53.436;8.828;2024-03-02T04:22:42;31.10;;;11.70;;
74059;SDS011;62414;53.436;8.828;2024-03-02T04:25:08;30.80;;;11.63;;
74059;SDS011;62414;53.436;8.828;2024-03-02T04:27:33;29.80;;;11.70;;
74059;SDS011;62414;53.436;8.828;2024-03-02T04:29:59;34.67;;;11.93;;
74059;SDS011;62414;53.436;8.828;2024-03-02T04:32:24;30.13;;;11.60;;
74059;SDS011;62414;53.436;8.828;2024-03-02T04:34:50;31.47;;;11.57;;
74059;SDS011;62414;53.436;8.828;2024-03-02T04:37:15;29.13;;;11.33;;
74059;SDS011;62414;53.436;8.828;2024-03-02T04:39:42;31.52;;;11.30;;
74059;SDS011;62414;53.436;8.828;2024-03-02T04:42:08;29.55;;;10.93;;
74059;SDS011;62414;53.436;8.828;2024-03-02T04:44:33;29.97;;;11.33;;
74059;SDS011;62414;53.436;8.828;2024-03-02T04:46:59;29.40;;;11.07;;
74059;SDS011;62414;53.436;8.828;2024-03-02T04:49:24;29.80;;;11.10;;
74059;SDS011;62414;53.436;8.828;2024-03-02T04:51:50;27.73;;;10.10;;
74059;SDS011;62414;53.436;8.828;2024-03-02T04:54:15;27.63;;;11.23;;
74059;SDS011;62414;53.436;8.828;2024-03-02T04:56:42;27.90;;;10.65;;
74059;SDS011;62414;53.436;8.828;2024-03-02T04:59:08;27.57;;;10.80;;
74059;SDS011;62414;53.436;8.828;2024-03-02T05:01:33;31.45;;;10.80;;
74059;SDS011;62414;53.436;8.828;2024-03-02T05:03:59;29.27;;;11.40;;
74059;SDS011;62414;53.436;8.828;2024-03-02T05:06:24;25.40;;;10.47;;
74059;SDS011;62414;53.436;8.828;2024-03-02T05:08:50;28.58;;;10.70;;
74059;SDS011;62414;53.436;8.828;2024-03-02T05:11:15;24.77;;;10.17;;
74059;SDS011;62414;53.436;8.828;2024-03-02T05:13:42;27.57;;;10.93;;
74059;SDS011;62414;53.436;8.828;2024-03-02T05:16:07;27.23;;;10.75;;
74059;SDS011;62414;53.436;8.828;2024-03-02T05:18:33;27.02;;;10.45;;
74059;SDS011;62414;53.436;8.828;2024-03-02T05:20:58;25.90;;;10.20;;
74059;SDS011;62414;53.436;8.828;2024-03-02T05:23:24;26.70;;;10.47;;
74059;SDS011;62414;53.436;8.828;2024-03-02T05:25:49;27.60;;;10.38;;
74059;SDS011;62414;53.436;8.828;2024-03-02T05:28:15;25.30;;;9.80;;
74059;SDS011;62414;53.436;8.828;2024-03-02T05:30:43;28.27;;;10.00;;
74059;SDS011;62414;53.436;8.828;2024-03-02T05:33:09;27.35;;;10.60;;
74059;SDS011;62414;53.436;8.828;2024-03-02T05:35:34;26.47;;;10.13;;
74059;SDS011;62414;53.436;8.828;2024-03-02T05:38:00;29.80;;;10.60;;
74059;SDS011;62414;53.436;8.828;2024-03-02T05:40:25;26.70;;;9.90;;
74059;SDS011;62414;53.436;8.828;2024-03-02T05:42:51;28.40;;;10.23;;
74059;SDS011;62414;53.436;8.828;2024-03-02T05:45:16;24.73;;;10.32;;
74059;SDS011;62414;53.436;8.828;2024-03-02T05:47:43;25.57;;;9.37;;
74059;SDS011;62414;53.436;8.828;2024-03-02T05:50:09;27.88;;;10.43;;
74059;SDS011;62414;53.436;8.828;2024-03-02T05:52:34;26.10;;;10.60;;
74059;SDS011;62414;53.436;8.828;2024-03-02T05:55:00;27.77;;;10.13;;
74059;SDS011;62414;53.436;8.828;2024-03-02T05:57:25;26.13;;;9.97;;
74059;SDS011;62414;53.436;8.828;2024-03-02T05:59:51;26.90;;;10.43;;
74059;SDS011;62414;53.436;8.828;2024-03-02T06:02:16;29.13;;;9.73;;
74059;SDS011;62414;53.436;8.828;2024-03-02T06:04:43;25.67;;;9.97;;
74059;SDS011;62414;53.436;8.828;2024-03-02T06:07:08;27.58;;;10.40;;
74059;SDS011;62414;53.436;8.828;2024-03-02T06:09:34;25.87;;;10.43;;
74059;SDS011;62414;53.436;8.828;2024-03-02T06:11:59;26.43;;;9.77;;
74059;SDS011;62414;53.436;8.828;2024-03-02T06:14:25;26.25;;;10.07;;
74059;SDS011;62414;53.436;8.828;2024-03-02T06:16:50;25.57;;;10.03;;
74059;SDS011;62414;53.436;8.828;2024-03-02T06:19:16;26.73;;;10.53;;
74059;SDS011;62414;53.436;8.828;2024-03-02T06:21:43;28.13;;;10.77;;
74059;SDS011;62414;53.436;8.828;2024-03-02T06:24:08;27.93;;;10.60;;
74059;SDS011;62414;53.436;8.828;2024-03-02T06:26:34;26.60;;;9.93;;
74059;SDS011;62414;53.436;8.828;2024-03-02T06:28:59;26.70;;;10.37;;
74059;SDS011;62414;53.436;8.828;2024-03-02T06:31:25;26.87;;;10.57;;
74059;SDS011;62414;53.436;8.828;2024-03-02T06:33:50;24.70;;;9.88;;
74059;SDS011;62414;53.436;8.828;2024-03-02T06:36:16;28.87;;;10.73;;
74059;SDS011;62414;53.436;8.828;2024-03-02T06:38:43;27.60;;;10.37;;
74059;SDS011;62414;53.436;8.828;2024-03-02T06:41:08;31.92;;;11.00;;
74059;SDS011;62414;53.436;8.828;2024-03-02T06:43:34;28.33;;;10.73;;
74059;SDS011;62414;53.436;8.828;2024-03-02T06:45:59;27.67;;;10.73;;
74059;SDS011;62414;53.436;8.828;2024-03-02T06:48:25;27.73;;;10.47;;
74059;SDS011;62414;53.436;8.828;2024-03-02T06:50:50;27.53;;;10.43;;
74059;SDS011;62414;53.436;8.828;2024-03-02T06:53:16;29.13;;;10.35;;
74059;SDS011;62414;53.436;8.828;2024-03-02T06:55:43;27.80;;;11.23;;
74059;SDS011;62414;53.436;8.828;2024-03-02T06:58:08;26.33;;;10.77;;
74059;SDS011;62414;53.436;8.828;2024-03-02T07:00:34;28.60;;;10.73;;
74059;SDS011;62414;53.436;8.828;2024-03-02T07:02:59;24.98;;;10.13;;
74059;SDS011;62414;53.436;8.828;2024-03-02T07:05:25;27.90;;;11.23;;
74059;SDS011;62414;53.436;8.828;2024-03-02T07:07:50;28.60;;;10.93;;
74059;SDS011;62414;53.436;8.828;2024-03-02T07:10:16;27.05;;;11.20;;
74059;SDS011;62414;53.436;8.828;2024-03-02T07:12:43;35.70;;;15.03;;
74059;SDS011;62414;53.436;8.828;2024-03-02T07:15:08;35.25;;;13.88;;
74059;SDS011;62414;53.436;8.828;2024-03-02T07:17:34;29.77;;;12.85;;
74059;SDS011;62414;53.436;8.828;2024-03-02T07:20:00;30.20;;;11.77;;
74059;SDS011;62414;53.436;8.828;2024-03-02T07:22:25;25.83;;;11.30;;
74059;SDS011;62414;53.436;8.828;2024-03-02T07:24:51;27.73;;;11.30;;
74059;SDS011;62414;53.436;8.828;2024-03-02T07:27:16;24.60;;;10.50;;
74059;SDS011;62414;53.436;8.828;2024-03-02T07:29:44;24.33;;;10.15;;
74059;SDS011;62414;53.436;8.828;2024-03-02T07:32:09;25.03;;;10.53;;
74059;SDS011;62414;53.436;8.828;2024-03-02T07:34:35;27.85;;;10.38;;
74059;SDS011;62414;53.436;8.828;2024-03-02T07:37:01;26.75;;;10.27;;
74059;SDS011;62414;53.436;8.828;2024-03-02T07:39:27;23.60;;;10.13;;
74059;SDS011;62414;53.436;8.828;2024-03-02T07:41:52;25.33;;;10.48;;
74059;SDS011;62414;53.436;8.828;2024-03-02T07:44:18;25.00;;;10.53;;
74059;SDS011;62414;53.436;8.828;2024-03-02T07:46:45;27.38;;;10.20;;
74059;SDS011;62414;53.436;8.828;2024-03-02T07:49:11;23.42;;;9.60;;
74059;SDS011;62414;53.436;8.828;2024-03-02T07:51:37;25.57;;;10.73;;
74059;SDS011;62414;53.436;8.828;2024-03-02T07:54:02;26.45;;;10.57;;
74059;SDS011;62414;53.436;8.828;2024-03-02T07:56:28;23.37;;;10.43;;
74059;SDS011;62414;53.436;8.828;2024-03-02T07:58:54;25.02;;;10.52;;
74059;SDS011;62414;53.436;8.828;2024-03-02T08:01:19;24.07;;;10.70;;
74059;SDS011;62414;53.436;8.828;2024-03-02T08:03:46;27.17;;;11.95;;
74059;SDS011;62414;53.436;8.828;2024-03-02T08:06:12;26.63;;;11.30;;
74059;SDS011;62414;53.436;8.828;2024-03-02T08:08:37;28.35;;;13.07;;
74059;SDS011;62414;53.436;8.828;2024-03-02T08:11:04;25.60;;;11.17;;
74059;SDS011;62414;53.436;8.828;2024-03-02T08:13:29;27.52;;;11.15;;
74059;SDS011;62414;53.436;8.828;2024-03-02T08:15:55;26.40;;;11.20;;
74059;SDS011;62414;53.436;8.828;2024-03-02T08:18:20;26.05;;;10.95;;
74059;SDS011;62414;53.436;8.828;2024-03-02T08:20:47;25.37;;;11.13;;
74059;SDS011;62414;53.436;8.828;2024-03-02T08:23:13;25.08;;;11.07;;
74059;SDS011;62414;53.436;8.828;2024-03-02T08:25:38;23.87;;;10.77;;
74059;SDS011;62414;53.436;8.828;2024-03-02T08:28:04;25.23;;;10.50;;
74059;SDS011;62414;53.436;8.828;2024-03-02T08:30:29;23.45;;;10.70;;
74059;SDS011;62414;53.436;8.828;2024-03-02T08:32:55;24.40;;;10.37;;
74059;SDS011;62414;53.436;8.828;2024-03-02T08:35:20;26.15;;;11.00;;
74059;SDS011;62414;53.436;8.828;2024-03-02T08:37:47;25.87;;;10.63;;
74059;SDS011;62414;53.436;8.828;2024-03-02T08:40:13;24.63;;;10.10;;
74059;SDS011;62414;53.436;8.828;2024-03-02T08:42:39;24.30;;;10.80;;
74059;SDS011;62414;53.436;8.828;2024-03-02T08:45:04;28.02;;;11.48;;
74059;SDS011;62414;53.436;8.828;2024-03-02T08:47:31;23.80;;;10.90;;
74059;SDS011;62414;53.436;8.828;2024-03-02T08:49:57;22.20;;;10.63;;
74059;SDS011;62414;53.436;8.828;2024-03-02T08:52:22;25.57;;;11.27;;
74059;SDS011;62414;53.436;8.828;2024-03-02T08:54:49;25.40;;;10.27;;
74059;SDS011;62414;53.436;8.828;2024-03-02T08:57:14;24.88;;;10.70;;
74059;SDS011;62414;53.436;8.828;2024-03-02T08:59:40;26.67;;;10.93;;
74059;SDS011;62414;53.436;8.828;2024-03-02T09:02:06;27.07;;;12.53;;
74059;SDS011;62414;53.436;8.828;2024-03-02T09:04:31;24.02;;;10.75;;
74059;SDS011;62414;53.436;8.828;2024-03-02T09:06:57;23.87;;;10.50;;
74059;SDS011;62414;53.436;8.828;2024-03-02T09:09:23;25.93;;;11.83;;
74059;SDS011;62414;53.436;8.828;2024-03-02T09:11:49;24.53;;;10.70;;
74059;SDS011;62414;53.436;8.828;2024-03-02T09:14:15;25.40;;;11.05;;
74059;SDS011;62414;53.436;8.828;2024-03-02T09:16:40;23.77;;;10.83;;
74059;SDS011;62414;53.436;8.828;2024-03-02T09:19:06;27.53;;;11.17;;
74059;SDS011;62414;53.436;8.828;2024-03-02T09:21:31;24.20;;;10.33;;
74059;SDS011;62414;53.436;8.828;2024-03-02T09:23:57;23.43;;;10.53;;
74059;SDS011;62414;53.436;8.828;2024-03-02T09:26:22;24.17;;;10.80;;
74059;SDS011;62414;53.436;8.828;2024-03-02T09:28:50;25.80;;;10.57;;
74059;SDS011;62414;53.436;8.828;2024-03-02T09:31:16;22.63;;;9.93;;
74059;SDS011;62414;53.436;8.828;2024-03-02T09:33:41;23.57;;;10.47;;
74059;SDS011;62414;53.436;8.828;2024-03-02T09:36:16;22.95;;;10.10;;
74059;SDS011;62414;53.436;8.828;2024-03-02T09:38:42;25.02;;;10.07;;
74059;SDS011;62414;53.436;8.828;2024-03-02T09:41:07;22.73;;;10.13;;
74059;SDS011;62414;53.436;8.828;2024-03-02T09:43:33;23.13;;;9.93;;
74059;SDS011;62414;53.436;8.828;2024-03-02T09:46:00;22.17;;;9.93;;
74059;SDS011;62414;53.436;8.828;2024-03-02T09:48:25;23.27;;;9.77;;
74059;SDS011;62414;53.436;8.828;2024-03-02T09:50:51;21.73;;;10.00;;
74059;SDS011;62414;53.436;8.828;2024-03-02T09:53:16;24.47;;;10.00;;
74059;SDS011;62414;53.436;8.828;2024-03-02T09:55:45;22.50;;;9.68;;
74059;SDS011;62414;53.436;8.828;2024-03-02T09:58:11;23.33;;;9.55;;
74059;SDS011;62414;53.436;8.828;2024-03-02T10:00:36;19.83;;;9.40;;
74059;SDS011;62414;53.436;8.828;2024-03-02T10:03:03;21.48;;;9.80;;
74059;SDS011;62414;53.436;8.828;2024-03-02T10:05:29;19.67;;;9.37;;
74059;SDS011;62414;53.436;8.828;2024-03-02T10:07:58;20.98;;;9.80;;
74059;SDS011;62414;53.436;8.828;2024-03-02T10:10:26;22.42;;;9.50;;
74059;SDS011;62414;53.436;8.828;2024-03-02T10:13:03;20.43;;;9.43;;
74059;SDS011;62414;53.436;8.828;2024-03-02T10:15:29;20.17;;;9.07;;
74059;SDS011;62414;53.436;8.828;2024-03-02T10:17:54;20.73;;;8.77;;
74059;SDS011;62414;53.436;8.828;2024-03-02T10:20:25;19.73;;;9.07;;
74059;SDS011;62414;53.436;8.828;2024-03-02T10:22:51;22.00;;;9.38;;
74059;SDS011;62414;53.436;8.828;2024-03-02T10:25:28;19.83;;;9.40;;
74059;SDS011;62414;53.436;8.828;2024-03-02T10:27:56;18.23;;;8.55;;
74059;SDS011;62414;53.436;8.828;2024-03-02T10:30:22;19.67;;;9.00;;
74059;SDS011;62414;53.436;8.828;2024-03-02T10:32:48;21.07;;;9.50;;
74059;SDS011;62414;53.436;8.828;2024-03-02T10:35:14;17.15;;;8.23;;
74059;SDS011;62414;53.436;8.828;2024-03-02T10:37:41;19.48;;;8.80;;
74059;SDS011;62414;53.436;8.828;2024-03-02T10:40:07;20.23;;;8.43;;
74059;SDS011;62414;53.436;8.828;2024-03-02T10:42:36;17.90;;;8.07;;
74059;SDS011;62414;53.436;8.828;2024-03-02T10:45:03;19.08;;;8.25;;
74059;SDS011;62414;53.436;8.828;2024-03-02T10:47:29;19.10;;;8.57;;
74059;SDS011;62414;53.436;8.828;2024-03-02T10:49:56;18.33;;;7.85;;
74059;SDS011;62414;53.436;8.828;2024-03-02T10:52:24;17.88;;;8.20;;
74059;SDS011;62414;53.436;8.828;2024-03-02T10:54:50;18.27;;;8.10;;
74059;SDS011;62414;53.436;8.828;2024-03-02T10:57:16;18.02;;;8.55;;
74059;SDS011;62414;53.436;8.828;2024-03-02T10:59:44;17.27;;;8.43;;
74059;SDS011;62414;53.436;8.828;2024-03-02T11:02:18;18.20;;;8.10;;
74059;SDS011;62414;53.436;8.828;2024-03-02T11:04:46;17.60;;;8.02;;
74059;SDS011;62414;53.436;8.828;2024-03-02T11:07:13;18.25;;;8.90;;
74059;SDS011;62414;53.436;8.828;2024-03-02T11:09:39;19.90;;;8.50;;
74059;SDS011;62414;53.436;8.828;2024-03-02T11:12:09;17.38;;;7.68;;
74059;SDS011;62414;53.436;8.828;2024-03-02T11:14:38;16.90;;;8.25;;
74059;SDS011;62414;53.436;8.828;2024-03-02T11:17:06;15.63;;;7.43;;
74059;SDS011;62414;53.436;8.828;2024-03-02T11:19:31;17.02;;;7.18;;
74059;SDS011;62414;53.436;8.828;2024-03-02T11:21:57;16.60;;;7.90;;
74059;SDS011;62414;53.436;8.828;2024-03-02T11:24:29;15.33;;;7.10;;
74059;SDS011;62414;53.436;8.828;2024-03-02T11:26:55;16.33;;;6.95;;
74059;SDS011;62414;53.436;8.828;2024-03-02T11:32:13;15.45;;;7.70;;
74059;SDS011;62414;53.436;8.828;2024-03-02T11:34:40;12.63;;;6.40;;
74059;SDS011;62414;53.436;8.828;2024-03-02T11:37:06;16.30;;;7.22;;
74059;SDS011;62414;53.436;8.828;2024-03-02T11:39:33;14.53;;;7.00;;
74059;SDS011;62414;53.436;8.828;2024-03-02T11:41:59;18.88;;;8.50;;
74059;SDS011;62414;53.436;8.828;2024-03-02T11:44:25;17.93;;;7.03;;
74059;SDS011;62414;53.436;8.828;2024-03-02T11:46:53;14.38;;;7.10;;
74059;SDS011;62414;53.436;8.828;2024-03-02T11:49:36;15.68;;;6.90;;
74059;SDS011;62414;53.436;8.828;2024-03-02T11:52:02;13.90;;;6.68;;
74059;SDS011;62414;53.436;8.828;2024-03-02T11:54:28;14.48;;;7.07;;
74059;SDS011;62414;53.436;8.828;2024-03-02T11:56:55;14.83;;;6.80;;
74059;SDS011;62414;53.436;8.828;2024-03-02T11:59:21;16.23;;;7.45;;
74059;SDS011;62414;53.436;8.828;2024-03-02T12:01:47;14.02;;;6.88;;
74059;SDS011;62414;53.436;8.828;2024-03-02T12:04:14;15.07;;;6.70;;
74059;SDS011;62414;53.436;8.828;2024-03-02T12:06:39;14.52;;;6.90;;
74059;SDS011;62414;53.436;8.828;2024-03-02T12:09:05;17.25;;;7.30;;
74059;SDS011;62414;53.436;8.828;2024-03-02T12:11:31;13.93;;;6.90;;
74059;SDS011;62414;53.436;8.828;2024-03-02T12:13:56;12.70;;;6.50;;
74059;SDS011;62414;53.436;8.828;2024-03-02T12:16:23;15.52;;;7.03;;
74059;SDS011;62414;53.436;8.828;2024-03-02T12:18:49;16.58;;;7.35;;
74059;SDS011;62414;53.436;8.828;2024-03-02T12:21:16;19.23;;;8.53;;
74059;SDS011;62414;53.436;8.828;2024-03-02T12:23:41;13.55;;;6.70;;
74059;SDS011;62414;53.436;8.828;2024-03-02T12:26:07;13.27;;;6.50;;
74059;SDS011;62414;53.436;8.828;2024-03-02T12:28:33;14.93;;;7.33;;
74059;SDS011;62414;53.436;8.828;2024-03-02T12:30:59;14.05;;;6.70;;
74059;SDS011;62414;53.436;8.828;2024-03-02T12:33:24;14.02;;;7.07;;
74059;SDS011;62414;53.436;8.828;2024-03-02T12:35:50;14.20;;;7.80;;
74059;SDS011;62414;53.436;8.828;2024-03-02T12:38:16;17.30;;;8.60;;
74059;SDS011;62414;53.436;8.828;2024-03-02T12:40:42;16.60;;;8.90;;
74059;SDS011;62414;53.436;8.828;2024-03-02T12:43:07;13.97;;;7.43;;
74059;SDS011;62414;53.436;8.828;2024-03-02T12:45:33;13.98;;;6.47;;
74059;SDS011;62414;53.436;8.828;2024-03-02T12:47:59;12.43;;;6.30;;
74059;SDS011;62414;53.436;8.828;2024-03-02T12:50:25;12.18;;;6.72;;
74059;SDS011;62414;53.436;8.828;2024-03-02T12:52:51;12.32;;;6.30;;
74059;SDS011;62414;53.436;8.828;2024-03-02T12:55:19;12.40;;;6.50;;
74059;SDS011;62414;53.436;8.828;2024-03-02T12:57:45;14.13;;;7.03;;
74059;SDS011;62414;53.436;8.828;2024-03-02T13:00:11;12.13;;;6.30;;
74059;SDS011;62414;53.436;8.828;2024-03-02T13:02:39;13.17;;;6.30;;
74059;SDS011;62414;53.436;8.828;2024-03-02T13:05:05;12.05;;;6.10;;
74059;SDS011;62414;53.436;8.828;2024-03-02T13:07:31;11.65;;;6.10;;
74059;SDS011;62414;53.436;8.828;2024-03-02T13:09:57;12.87;;;6.00;;
74059;SDS011;62414;53.436;8.828;2024-03-02T13:12:24;12.82;;;6.50;;
74059;SDS011;62414;53.436;8.828;2024-03-02T13:14:51;12.17;;;6.30;;
74059;SDS011;62414;53.436;8.828;2024-03-02T13:17:17;10.90;;;5.80;;
74059;SDS011;62414;53.436;8.828;2024-03-02T13:19:43;12.50;;;5.80;;
74059;SDS011;62414;53.436;8.828;2024-03-02T13:22:15;11.45;;;5.57;;
74059;SDS011;62414;53.436;8.828;2024-03-02T13:24:41;11.07;;;5.27;;
74059;SDS011;62414;53.436;8.828;2024-03-02T13:27:06;9.47;;;5.23;;
74059;SDS011;62414;53.436;8.828;2024-03-02T13:29:33;10.73;;;5.47;;
74059;SDS011;62414;53.436;8.828;2024-03-02T13:31:59;11.77;;;5.82;;
74059;SDS011;62414;53.436;8.828;2024-03-02T13:34:24;11.70;;;5.93;;
74059;SDS011;62414;53.436;8.828;2024-03-02T13:36:50;11.50;;;6.10;;
74059;SDS011;62414;53.436;8.828;2024-03-02T13:39:15;9.95;;;5.35;;
74059;SDS011;62414;53.436;8.828;2024-03-02T13:41:41;10.47;;;5.50;;
74059;SDS011;62414;53.436;8.828;2024-03-02T13:44:06;10.73;;;5.60;;
74059;SDS011;62414;53.436;8.828;2024-03-02T13:46:33;10.07;;;5.43;;
74059;SDS011;62414;53.436;8.828;2024-03-02T13:48:59;10.48;;;5.40;;
74059;SDS011;62414;53.436;8.828;2024-03-02T13:51:24;10.23;;;5.27;;
74059;SDS011;62414;53.436;8.828;2024-03-02T13:53:50;8.70;;;5.00;;
74059;SDS011;62414;53.436;8.828;2024-03-02T13:56:15;9.77;;;4.88;;
74059;SDS011;62414;53.436;8.828;2024-03-02T13:58:42;10.07;;;5.10;;
74059;SDS011;62414;53.436;8.828;2024-03-02T14:01:07;10.38;;;5.05;;
74059;SDS011;62414;53.436;8.828;2024-03-02T14:03:34;10.20;;;4.80;;
74059;SDS011;62414;53.436;8.828;2024-03-02T14:06:00;8.77;;;4.65;;
74059;SDS011;62414;53.436;8.828;2024-03-02T14:08:26;8.90;;;4.87;;
74059;SDS011;62414;53.436;8.828;2024-03-02T14:10:51;8.98;;;4.53;;
74059;SDS011;62414;53.436;8.828;2024-03-02T14:13:17;9.40;;;4.47;;
74059;SDS011;62414;53.436;8.828;2024-03-02T14:15:42;8.23;;;4.00;;
74059;SDS011;62414;53.436;8.828;2024-03-02T14:18:08;8.43;;;4.10;;
74059;SDS011;62414;53.436;8.828;2024-03-02T14:20:35;9.23;;;4.27;;
74059;SDS011;62414;53.436;8.828;2024-03-02T14:23:00;7.20;;;3.83;;